Time;durP1;ratioP1;P1;durP2;ratioP2;P2;SDS_P1;SDS_P2;PMS_P1;PMS_P2;Temp;Humidity;BMP_temperature;BMP_pressure;BME280_temperature;BME280_humidity;BME280_pressure;Samples;Min_cycle;Max_cycle;Signal;HPM_P1;HPM_P2
2021/12/24 00:00:01;;;;;;;25.20;17.60;;;;;;;8.74;100.00;100484.53;10521027;28;20411;-70
2021/12/24 00:05:03;;;;;;;19.48;17.48;;;;;;;8.74;100.00;100481.84;10516201;28;20083;-69
2021/12/24 00:10:05;;;;;;;21.38;15.68;;;;;;;8.83;100.00;100475.28;10514557;28;20028;-69
2021/12/24 00:15:22;;;;;;;35.78;16.77;;;;;;;8.88;100.00;100472.00;10503509;28;20059;-70
2021/12/24 00:36:01;;;;;;;24.13;14.90;;;;;;;9.26;100.00;100469.75;10501859;28;20475;-70
2021/12/24 00:41:02;;;;;;;26.42;15.02;;;;;;;9.30;100.00;100468.31;10500481;28;20040;-70
2021/12/24 00:46:02;;;;;;;23.65;13.20;;;;;;;9.36;100.00;100475.63;10501408;28;20074;-70
2021/12/24 00:56:05;;;;;;;18.98;13.52;;;;;;;9.39;100.00;100469.81;10500884;28;20480;-70
2021/12/24 01:01:06;;;;;;;22.20;12.88;;;;;;;9.45;100.00;100470.88;10500596;28;20024;-70
2021/12/24 01:06:07;;;;;;;28.70;13.23;;;;;;;9.48;100.00;100467.78;10499371;28;20024;-70
2021/12/24 01:11:08;;;;;;;17.80;12.68;;;;;;;9.44;100.00;100461.91;10499087;28;20452;-70
2021/12/24 01:16:20;;;;;;;30.85;11.68;;;;;;;9.45;100.00;100479.00;10501882;28;20086;-70
2021/12/24 01:42:47;;;;;;;26.90;12.00;;;;;;;9.52;100.00;100475.28;10490251;28;20091;-71
2021/12/24 01:47:48;;;;;;;20.65;11.25;;;;;;;9.52;100.00;100469.03;10498369;28;20067;-70
2021/12/24 01:52:50;;;;;;;16.83;10.68;;;;;;;9.55;100.00;100457.81;10499832;28;20444;-70
2021/12/24 01:57:51;;;;;;;19.23;10.90;;;;;;;9.47;100.00;100466.94;10498873;28;20553;-70
2021/12/24 02:02:51;;;;;;;21.30;10.82;;;;;;;9.33;100.00;100476.00;10498667;28;20040;-70
2021/12/24 02:07:52;;;;;;;15.95;9.50;;;;;;;9.28;100.00;100481.16;10497925;28;20039;-70
2021/12/24 02:12:53;;;;;;;19.02;10.68;;;;;;;9.27;100.00;100490.31;10497036;28;20021;-70
2021/12/24 02:28:49;;;;;;;19.77;9.18;;;;;;;9.33;100.00;100481.41;10497655;28;20050;-71
2021/12/24 02:33:49;;;;;;;18.13;9.20;;;;;;;9.26;100.00;100477.84;10498005;28;20036;-71
2021/12/24 02:38:50;;;;;;;14.02;8.57;;;;;;;9.26;100.00;100475.16;10500272;28;20380;-71
2021/12/24 02:43:50;;;;;;;15.13;8.27;;;;;;;9.27;100.00;100479.50;10498463;28;20537;-70
2021/12/24 02:58:55;;;;;;;9.13;7.30;;;;;;;9.28;100.00;100478.47;10499865;28;20452;-70
2021/12/24 03:03:56;;;;;;;17.17;9.23;;;;;;;9.31;100.00;100469.97;10501358;28;20028;-69
2021/12/24 03:08:56;;;;;;;21.23;9.18;;;;;;;9.25;100.00;100471.63;10505303;28;20043;-70
2021/12/24 03:13:57;;;;;;;15.95;8.10;;;;;;;9.26;100.00;100481.38;10520143;28;20036;-70
2021/12/24 03:18:57;;;;;;;26.40;10.52;;;;;;;9.31;100.00;100473.50;10505299;28;20066;-69
2021/12/24 03:29:04;;;;;;;12.60;7.40;;;;;;;9.28;100.00;100470.38;10506364;28;20051;-70
2021/12/24 03:34:06;;;;;;;20.65;9.00;;;;;;;9.24;100.00;100472.63;10503561;28;20028;-69
2021/12/24 03:39:07;;;;;;;20.20;8.88;;;;;;;9.26;100.00;100477.84;10520846;28;20052;-71
2021/12/24 03:44:10;;;;;;;16.60;7.22;;;;;;;9.27;100.00;100474.94;10504513;28;20033;-70
2021/12/24 03:49:19;;;;;;;28.67;8.93;;;;;;;9.27;100.00;100472.25;10502460;28;20043;-71
2021/12/24 03:59:39;;;;;;;20.90;8.13;;;;;;;9.19;100.00;100474.25;10502767;28;20119;-70
2021/12/24 04:04:39;;;;;;;16.30;6.53;;;;;;;9.19;100.00;100469.72;10503630;28;20123;-71
2021/12/24 04:09:54;;;;;;;19.92;7.65;;;;;;;9.15;100.00;100473.00;10502279;28;20028;-71
2021/12/24 04:14:54;;;;;;;18.40;7.22;;;;;;;9.04;100.00;100486.03;10502658;28;20112;-70
2021/12/24 04:25:04;;;;;;;20.52;6.75;;;;;;;8.86;100.00;100480.28;10502447;28;20387;-70
2021/12/24 04:30:15;;;;;;;14.43;6.07;;;;;;;8.91;100.00;100482.41;10500834;28;20039;-70
2021/12/24 04:35:30;;;;;;;17.58;7.22;;;;;;;8.88;100.00;100480.94;10500840;28;20048;-70
2021/12/24 05:06:39;;;;;;;10.75;6.38;;;;;;;8.60;100.00;100475.50;10501890;28;20112;-71
2021/12/24 05:11:40;;;;;;;20.00;6.77;;;;;;;8.60;100.00;100470.13;10501584;28;20048;-71
2021/12/24 05:16:48;;;;;;;22.73;6.53;;;;;;;8.54;100.00;100482.53;10499536;28;20036;-71
2021/12/24 05:21:49;;;;;;;12.38;6.72;;;;;;;8.53;100.00;100480.88;10498861;28;20411;-71
2021/12/24 05:26:52;;;;;;;17.80;6.28;;;;;;;8.52;100.00;100486.44;10500326;28;20037;-71
2021/12/24 05:31:52;;;;;;;30.65;9.02;;;;;;;8.53;100.00;100493.53;10498832;28;20028;-71
2021/12/24 05:36:53;;;;;;;18.88;6.65;;;;;;;8.58;100.00;100486.53;10416305;28;20055;-72
2021/12/24 05:41:53;;;;;;;31.77;7.53;;;;;;;8.49;100.00;100485.00;10499175;28;20075;-71
2021/12/24 05:46:54;;;;;;;19.30;7.22;;;;;;;8.48;100.00;100490.56;10515995;28;20037;-72
2021/12/24 05:51:54;;;;;;;12.02;4.95;;;;;;;8.49;100.00;100479.59;10498061;28;20060;-71
2021/12/24 05:56:55;;;;;;;17.05;6.80;;;;;;;8.38;100.00;100482.78;10498714;28;20491;-70
2021/12/24 06:01:55;;;;;;;26.35;7.45;;;;;;;8.24;100.00;100484.50;10497467;28;20040;-70
2021/12/24 06:06:56;;;;;;;27.38;7.15;;;;;;;8.13;100.00;100490.41;10496867;28;20041;-73
2021/12/24 06:11:56;;;;;;;21.10;9.07;;;;;;;8.24;100.00;100497.16;10498558;28;20107;-72
2021/12/24 06:17:04;;;;;;;20.73;7.43;;;;;;;8.29;100.00;100492.00;10496859;28;20036;-69
2021/12/24 06:22:05;;;;;;;13.52;6.53;;;;;;;8.23;100.00;100500.88;10497533;28;20029;-69
2021/12/24 06:27:05;;;;;;;30.83;6.90;;;;;;;8.13;100.00;100491.22;10498695;28;20033;-69
2021/12/24 06:32:06;;;;;;;25.15;7.57;;;;;;;8.05;100.00;100495.94;10497913;28;20055;-68
2021/12/24 06:37:08;;;;;;;22.95;7.72;;;;;;;7.95;100.00;100487.31;10498305;28;20504;-69
2021/12/24 06:42:08;;;;;;;33.65;8.70;;;;;;;7.99;100.00;100502.06;10507290;28;20033;-67
2021/12/24 06:47:09;;;;;;;20.60;5.57;;;;;;;8.10;100.00;100505.13;10522690;28;20044;-69
2021/12/24 06:52:09;;;;;;;26.40;6.95;;;;;;;8.22;100.00;100493.81;10504491;28;20025;-70
2021/12/24 06:57:15;;;;;;;30.83;8.27;;;;;;;8.21;100.00;100487.59;10506148;28;20041;-70
2021/12/24 07:02:15;;;;;;;23.25;5.93;;;;;;;8.10;100.00;100488.94;10504883;28;20029;-70
2021/12/24 07:07:15;;;;;;;29.50;6.40;;;;;;;7.99;100.00;100484.03;10503632;28;20380;-70
2021/12/24 07:12:16;;;;;;;34.63;5.95;;;;;;;7.90;100.00;100485.19;10505052;28;20064;-71
2021/12/24 07:17:16;;;;;;;16.63;6.85;;;;;;;7.87;100.00;100478.28;10504348;28;20423;-70
2021/12/24 07:22:18;;;;;;;16.63;5.35;;;;;;;7.89;100.00;100486.22;10505752;28;20123;-69
2021/12/24 07:27:19;;;;;;;11.35;4.32;;;;;;;7.84;100.00;100483.25;10504290;28;20120;-70
2021/12/24 07:32:19;;;;;;;18.30;6.32;;;;;;;7.86;100.00;100489.28;10503840;28;20459;-70
2021/12/24 07:37:20;;;;;;;13.65;5.82;;;;;;;7.95;100.00;100496.25;10503650;28;20067;-69
2021/12/24 07:42:20;;;;;;;25.42;6.93;;;;;;;7.99;100.00;100492.13;10506738;28;20040;-68
2021/12/24 07:47:27;;;;;;;17.23;6.45;;;;;;;8.02;100.00;100491.75;10503488;28;20044;-70
2021/12/24 07:52:28;;;;;;;17.65;4.18;;;;;;;8.02;100.00;100478.25;10502988;28;20387;-69
2021/12/24 07:57:29;;;;;;;20.95;5.28;;;;;;;7.92;100.00;100475.88;10504246;28;20029;-69
2021/12/24 08:02:29;;;;;;;17.65;5.47;;;;;;;7.91;100.00;100486.84;10503171;28;20388;-70
2021/12/24 08:07:30;;;;;;;14.82;5.05;;;;;;;7.96;100.00;100503.28;10502834;28;20033;-70
2021/12/24 08:12:30;;;;;;;20.67;4.85;;;;;;;8.03;100.00;100496.09;10501499;28;20036;-70
2021/12/24 08:17:30;;;;;;;19.50;5.95;;;;;;;8.26;100.00;100503.19;10502378;28;20123;-68
2021/12/24 08:22:31;;;;;;;18.25;4.80;;;;;;;8.42;100.00;100502.13;10503014;28;20068;-69
2021/12/24 08:27:32;;;;;;;43.78;7.22;;;;;;;8.52;100.00;100495.41;10502169;28;20056;-69
2021/12/24 08:32:37;;;;;;;16.58;4.78;;;;;;;8.60;100.00;100500.63;10500534;28;20070;-71
2021/12/24 08:37:37;;;;;;;25.20;7.03;;;;;;;8.63;100.00;100493.19;10503403;28;20361;-70
2021/12/24 08:42:37;;;;;;;26.60;7.30;;;;;;;8.67;100.00;100494.47;10499415;28;20041;-69
2021/12/24 08:47:38;;;;;;;13.77;4.53;;;;;;;8.58;100.00;100488.34;10500997;28;20029;-69
2021/12/24 08:52:42;;;;;;;11.38;6.82;;;;;;;8.68;100.00;100499.69;10499287;28;20044;-69
2021/12/24 08:57:42;;;;;;;14.77;5.40;;;;;;;8.80;100.00;100503.50;10500175;28;20028;-70
2021/12/24 09:02:43;;;;;;;34.05;6.72;;;;;;;8.85;100.00;100494.81;10497882;28;20426;-71
2021/12/24 09:07:43;;;;;;;21.20;6.97;;;;;;;8.78;100.00;100499.34;10499707;28;20067;-70
2021/12/24 09:12:44;;;;;;;32.30;8.20;;;;;;;8.94;100.00;100504.44;10499416;28;20035;-70
2021/12/24 09:17:46;;;;;;;18.70;6.78;;;;;;;9.00;100.00;100500.13;10500587;28;20535;-70
2021/12/24 09:22:48;;;;;;;36.60;9.07;;;;;;;9.07;100.00;100496.44;10500211;28;20119;-70
2021/12/24 09:27:49;;;;;;;18.45;5.78;;;;;;;9.16;100.00;100488.19;10500953;28;20029;-69
2021/12/24 09:32:50;;;;;;;38.88;7.70;;;;;;;9.18;100.00;100486.94;10499211;28;20150;-69
2021/12/24 09:37:50;;;;;;;27.33;7.50;;;;;;;9.17;100.00;100498.78;10499683;28;20113;-70
2021/12/24 09:42:50;;;;;;;23.00;6.70;;;;;;;9.03;100.00;100495.16;10499248;28;20032;-70
2021/12/24 09:47:51;;;;;;;28.85;7.13;;;;;;;9.04;100.00;100494.13;10514181;28;20036;-70
2021/12/24 09:52:51;;;;;;;15.98;5.68;;;;;;;9.07;100.00;100492.91;10497702;28;20033;-71
2021/12/24 09:57:52;;;;;;;33.28;6.85;;;;;;;9.13;100.00;100497.53;10496947;28;20173;-69
2021/12/24 10:02:57;;;;;;;17.98;4.63;;;;;;;9.12;100.00;100492.31;10513677;28;20064;-69
2021/12/24 10:08:05;;;;;;;10.43;6.03;;;;;;;9.14;100.00;100498.34;10497810;28;20028;-70
2021/12/24 10:13:24;;;;;;;22.88;5.75;;;;;;;9.17;100.00;100495.25;10497488;28;20111;-69
2021/12/24 10:18:39;;;;;;;25.67;6.35;;;;;;;9.34;100.00;100498.47;10497929;28;20468;-70
2021/12/24 10:23:44;;;;;;;15.30;5.20;;;;;;;9.36;100.00;100488.31;10497138;28;20594;-70
2021/12/24 10:28:52;;;;;;;12.43;5.57;;;;;;;9.29;100.00;100488.28;10496068;28;20107;-69
2021/12/24 10:34:11;;;;;;;15.27;6.07;;;;;;;9.32;100.00;100494.09;10495946;28;20129;-70
2021/12/24 10:39:11;;;;;;;15.88;6.60;;;;;;;9.38;100.00;100488.91;10496873;28;20052;-71
2021/12/24 10:44:34;;;;;;;23.65;6.95;;;;;;;9.42;100.00;100488.34;10496548;28;20032;-70
2021/12/24 10:54:56;;;;;;;11.03;4.63;;;;;;;9.50;100.00;100473.81;10497760;28;20112;-69
2021/12/24 10:59:59;;;;;;;16.40;5.93;;;;;;;9.48;100.00;100482.13;10496265;28;20391;-71
2021/12/24 11:05:00;;;;;;;18.33;6.60;;;;;;;9.41;100.00;100480.41;10497146;28;20063;-70
2021/12/24 11:10:12;;;;;;;17.15;4.38;;;;;;;9.35;100.00;100482.06;10513409;28;20056;-69
2021/12/24 11:15:27;;;;;;;18.25;6.88;;;;;;;9.29;100.00;100489.09;10495920;28;20124;-70
2021/12/24 11:20:29;;;;;;;15.45;6.45;;;;;;;9.20;100.00;100481.34;10496976;28;20034;-70
2021/12/24 11:25:33;;;;;;;9.38;3.83;;;;;;;9.28;100.00;100481.16;10500007;28;20040;-69
2021/12/24 11:30:34;;;;;;;27.10;5.70;;;;;;;9.28;100.00;100481.16;10503152;28;20029;-69
2021/12/24 11:35:35;;;;;;;19.67;6.18;;;;;;;9.23;100.00;100486.34;10503389;28;20049;-71
2021/12/24 11:40:35;;;;;;;14.63;5.45;;;;;;;9.27;100.00;100482.22;10502465;28;20055;-69
2021/12/24 11:45:36;;;;;;;11.45;5.80;;;;;;;9.33;100.00;100470.63;10502429;28;20036;-70
2021/12/24 11:50:36;;;;;;;30.10;6.47;;;;;;;9.34;100.00;100472.28;10504382;28;20032;-71
2021/12/24 11:55:45;;;;;;;15.02;5.55;;;;;;;9.40;100.00;100466.06;10503023;28;20037;-71
2021/12/24 12:00:48;;;;;;;26.23;6.38;;;;;;;9.49;100.00;100464.88;10503783;28;20036;-70
2021/12/24 12:05:48;;;;;;;25.77;6.00;;;;;;;9.52;100.00;100469.03;10502406;28;20032;-70
2021/12/24 12:11:02;;;;;;;11.82;4.63;;;;;;;9.57;100.00;100471.97;10517434;28;20040;-70
2021/12/24 12:16:02;;;;;;;19.60;4.88;;;;;;;9.53;100.00;100471.53;10501591;28;20097;-71
2021/12/24 12:21:14;;;;;;;20.27;5.10;;;;;;;9.51;100.00;100475.50;10502483;28;20037;-70
2021/12/24 12:26:34;;;;;;;16.20;4.32;;;;;;;9.54;100.00;100473.22;10500317;28;20410;-71
2021/12/24 12:31:34;;;;;;;15.68;5.85;;;;;;;9.60;100.00;100478.84;10501058;28;20029;-70
2021/12/24 12:36:38;;;;;;;20.42;6.00;;;;;;;9.59;100.00;100474.47;10500271;28;20052;-71
2021/12/24 12:41:47;;;;;;;22.58;5.97;;;;;;;9.59;100.00;100463.66;10501255;28;20040;-71
2021/12/24 12:46:51;;;;;;;17.42;4.93;;;;;;;9.53;100.00;100468.00;10500846;28;20025;-72
2021/12/24 12:52:07;;;;;;;24.75;8.18;;;;;;;9.55;100.00;100461.38;10499341;28;20148;-71
2021/12/24 12:57:19;;;;;;;12.32;3.95;;;;;;;9.57;100.00;100463.03;10500534;28;20456;-70
2021/12/24 13:02:20;;;;;;;16.45;4.93;;;;;;;9.57;100.00;100460.31;10501564;28;20042;-71
2021/12/24 13:07:23;;;;;;;20.60;5.18;;;;;;;9.55;100.00;100453.25;10516643;28;20054;-70
2021/12/24 13:12:23;;;;;;;21.60;5.40;;;;;;;9.54;100.00;100453.47;10498642;28;20441;-71
2021/12/24 13:17:31;;;;;;;15.77;5.30;;;;;;;9.45;100.00;100462.78;10498595;28;20040;-70
2021/12/24 13:22:33;;;;;;;18.63;5.13;;;;;;;9.42;100.00;100461.31;10499387;28;20127;-71
2021/12/24 13:27:38;;;;;;;14.00;4.32;;;;;;;9.43;100.00;100454.03;10498812;28;20437;-71
2021/12/24 13:32:49;;;;;;;10.75;3.50;;;;;;;9.40;100.00;100449.03;10499692;28;20032;-71
2021/12/24 13:37:50;;;;;;;20.50;4.78;;;;;;;9.31;100.00;100453.75;10499755;28;20077;-71
2021/12/24 13:42:56;;;;;;;4.78;3.63;;;;;;;9.32;100.00;100455.44;10496954;28;20522;-71
2021/12/24 13:48:02;;;;;;;19.17;6.85;;;;;;;9.28;100.00;100452.31;10497634;28;20028;-71
2021/12/24 13:58:27;;;;;;;12.55;4.10;;;;;;;9.25;100.00;100460.81;10497726;28;20041;-70
2021/12/24 14:03:30;;;;;;;17.30;5.10;;;;;;;9.16;100.00;100461.19;10497562;28;20036;-70
2021/12/24 14:08:32;;;;;;;12.30;6.40;;;;;;;9.08;100.00;100467.56;10496523;28;20111;-70
2021/12/24 14:13:37;;;;;;;21.40;6.18;;;;;;;9.10;100.00;100464.66;10479487;28;20430;-70
2021/12/24 14:23:42;;;;;;;19.23;5.40;;;;;;;9.16;100.00;100461.19;10513133;28;20438;-70
2021/12/24 14:28:52;;;;;;;26.25;5.28;;;;;;;9.14;100.00;100447.84;10495437;28;20094;-72
2021/12/24 14:33:52;;;;;;;14.55;4.60;;;;;;;9.13;100.00;100442.66;10497099;28;20132;-71
2021/12/24 14:38:53;;;;;;;18.67;6.60;;;;;;;9.07;100.00;100447.81;10495807;28;20060;-71
2021/12/24 14:43:53;;;;;;;14.32;6.43;;;;;;;9.05;100.00;100460.69;10498689;28;20041;-71
2021/12/24 14:49:03;;;;;;;20.80;4.38;;;;;;;9.02;100.00;100471.03;10497827;28;20041;-71
2021/12/24 14:54:04;;;;;;;14.95;4.93;;;;;;;9.00;100.00;100467.72;10497284;28;20041;-70
2021/12/24 14:59:04;;;;;;;15.88;5.93;;;;;;;9.01;100.00;100472.09;10515222;28;20054;-71
2021/12/24 15:04:05;;;;;;;9.88;5.65;;;;;;;8.94;100.00;100477.44;10505926;28;20036;-72
2021/12/24 15:09:11;;;;;;;18.75;5.40;;;;;;;8.85;100.00;100478.63;10505226;28;20423;-71
2021/12/24 15:14:16;;;;;;;13.77;6.30;;;;;;;8.88;100.00;100483.63;10504832;28;20028;-71
2021/12/24 15:19:17;;;;;;;9.98;5.40;;;;;;;8.85;100.00;100484.03;10504914;28;20064;-71
2021/12/24 15:24:20;;;;;;;15.57;6.05;;;;;;;8.84;100.00;100487.75;10521910;28;20033;-71
2021/12/24 15:29:20;;;;;;;11.88;5.55;;;;;;;8.78;100.00;100493.94;10506376;28;20043;-71
2021/12/24 15:34:20;;;;;;;15.10;4.85;;;;;;;8.75;100.00;100502.44;10503114;28;20035;-71
2021/12/24 15:39:21;;;;;;;16.63;6.25;;;;;;;8.71;100.00;100510.09;10505245;28;20060;-71
2021/12/24 15:44:21;;;;;;;12.77;5.93;;;;;;;8.69;100.00;100506.75;10503539;28;20037;-72
2021/12/24 15:49:22;;;;;;;9.48;4.93;;;;;;;8.66;100.00;100515.22;10503918;28;20131;-71
2021/12/24 15:54:22;;;;;;;7.25;5.97;;;;;;;8.66;100.00;100517.09;10501632;28;20035;-71
2021/12/24 15:59:23;;;;;;;10.20;5.68;;;;;;;8.60;100.00;100521.41;10503363;28;20032;-72
2021/12/24 16:04:24;;;;;;;19.48;6.57;;;;;;;8.57;100.00;100511.00;10502801;28;20537;-70
2021/12/24 16:09:24;;;;;;;12.35;5.80;;;;;;;8.48;100.00;100514.84;10500507;28;20032;-71
2021/12/24 16:14:26;;;;;;;13.30;7.30;;;;;;;8.48;100.00;100507.59;10502856;28;20046;-70
2021/12/24 16:19:27;;;;;;;17.75;7.38;;;;;;;8.49;100.00;100506.56;10502211;28;20486;-70
2021/12/24 16:24:27;;;;;;;9.20;6.93;;;;;;;8.49;100.00;100520.06;10502017;28;20031;-69
2021/12/24 16:29:56;;;;;;;5.88;5.07;;;;;;;8.43;100.00;100526.22;10502073;28;20039;-70
2021/12/24 16:34:59;;;;;;;5.63;3.60;;;;;;;8.34;100.00;100528.19;10500483;28;20446;-71
2021/12/24 16:40:00;;;;;;;4.85;3.33;;;;;;;8.28;100.00;100525.41;10500248;28;20080;-70
2021/12/24 16:45:01;;;;;;;6.43;3.08;;;;;;;8.24;100.00;100529.53;10502115;28;20541;-70
2021/12/24 16:50:01;;;;;;;5.90;3.55;;;;;;;8.23;100.00;100536.78;10500931;28;20041;-70
2021/12/24 16:55:02;;;;;;;5.18;3.75;;;;;;;8.14;100.00;100541.47;10500263;28;20047;-70
2021/12/24 17:00:05;;;;;;;3.75;3.45;;;;;;;8.08;100.00;100541.38;10499496;28;20113;-73
2021/12/24 17:05:05;;;;;;;3.55;3.25;;;;;;;8.01;100.00;100541.31;10499953;28;20111;-71
2021/12/24 17:10:07;;;;;;;3.17;2.88;;;;;;;7.81;100.00;100540.22;10498520;28;20392;-71
2021/12/24 17:15:09;;;;;;;2.08;1.98;;;;;;;7.64;100.00;100539.59;10500278;28;20033;-70
2021/12/24 17:20:11;;;;;;;9.20;3.05;;;;;;;7.50;100.00;100543.97;10499446;28;20044;-70
2021/12/24 17:25:12;;;;;;;5.15;3.05;;;;;;;7.45;100.00;100538.31;10498971;28;20465;-70
2021/12/24 17:30:14;;;;;;;6.57;3.63;;;;;;;7.45;100.00;100538.31;10498850;28;20051;-70
2021/12/24 17:35:15;;;;;;;4.72;3.67;;;;;;;7.46;100.00;100531.88;10481622;28;20036;-70
2021/12/24 17:40:16;;;;;;;3.17;2.88;;;;;;;7.39;100.00;100536.34;10500326;28;20178;-70
2021/12/24 17:45:16;;;;;;;3.80;2.58;;;;;;;7.27;100.00;100527.06;10498596;28;20036;-70
2021/12/24 17:50:17;;;;;;;5.68;2.65;;;;;;;7.29;100.00;100525.84;10499147;28;20044;-70
2021/12/24 17:55:17;;;;;;;6.07;3.28;;;;;;;7.31;100.00;100529.22;10499567;28;20075;-69
2021/12/24 18:00:18;;;;;;;3.33;2.65;;;;;;;7.30;100.00;100529.38;10499827;28;20068;-70
2021/12/24 18:05:20;;;;;;;3.42;3.13;;;;;;;7.30;100.00;100524.81;10499278;28;20036;-71
2021/12/24 18:10:22;;;;;;;4.57;3.80;;;;;;;7.28;100.00;100528.75;10514318;28;20029;-71
2021/12/24 18:15:23;;;;;;;4.05;3.75;;;;;;;7.26;100.00;100526.22;10498164;28;20054;-71
2021/12/24 18:20:23;;;;;;;5.03;4.50;;;;;;;7.18;100.00;100534.41;10498586;28;20127;-71
2021/12/24 18:25:26;;;;;;;5.07;4.00;;;;;;;7.21;100.00;100540.25;10498118;28;20040;-71
2021/12/24 18:30:27;;;;;;;15.13;4.85;;;;;;;7.27;100.00;100545.91;10497924;28;20058;-71
2021/12/24 18:35:27;;;;;;;5.22;4.70;;;;;;;7.29;100.00;100542.00;10509101;28;20094;-70
2021/12/24 18:40:28;;;;;;;11.25;7.60;;;;;;;7.32;100.00;100547.03;10527741;28;20078;-71
2021/12/24 18:45:30;;;;;;;39.15;28.08;;;;;;;7.28;100.00;100544.91;10510938;28;20032;-71
2021/12/24 18:50:30;;;;;;;4.63;3.75;;;;;;;7.07;100.00;100561.78;10510696;28;20094;-70
2021/12/24 18:55:31;;;;;;;10.05;6.88;;;;;;;6.88;100.00;100569.34;10512517;28;20452;-70
2021/12/24 19:00:35;;;;;;;8.13;7.32;;;;;;;6.63;100.00;100574.06;10511161;28;20040;-71
2021/12/24 19:05:36;;;;;;;8.65;7.30;;;;;;;6.45;100.00;100569.00;10511740;28;20036;-71
2021/12/24 19:10:37;;;;;;;9.82;7.90;;;;;;;6.38;100.00;100576.13;10526619;28;20040;-71
2021/12/24 19:15:37;;;;;;;10.40;9.00;;;;;;;6.34;100.00;100574.78;10510276;28;20396;-70
2021/12/24 19:20:38;;;;;;;7.93;7.13;;;;;;;6.26;100.00;100572.16;10509682;28;20025;-70
2021/12/24 19:25:38;;;;;;;10.45;8.65;;;;;;;6.21;100.00;100571.84;10509485;28;20136;-70
2021/12/24 19:30:39;;;;;;;11.50;8.80;;;;;;;6.20;100.00;100580.94;10526296;28;20123;-70
2021/12/24 19:35:39;;;;;;;10.65;8.15;;;;;;;6.19;100.00;100585.47;10509264;28;20051;-70
2021/12/24 19:40:40;;;;;;;8.23;7.40;;;;;;;6.18;100.00;100585.63;10526247;28;20052;-71
2021/12/24 19:45:40;;;;;;;7.15;6.35;;;;;;;6.13;100.00;100591.56;10520911;28;20090;-71
2021/12/24 19:50:41;;;;;;;9.45;8.48;;;;;;;6.05;100.00;100591.59;10503598;28;20033;-71
2021/12/24 19:55:42;;;;;;;9.63;6.53;;;;;;;5.92;100.00;100596.66;10503590;28;20044;-71
2021/12/24 20:00:43;;;;;;;9.75;8.43;;;;;;;5.84;100.00;100594.84;10504025;28;20052;-71
2021/12/24 20:05:43;;;;;;;10.25;7.85;;;;;;;5.82;100.00;100591.50;10501819;28;20032;-70
2021/12/24 20:10:46;;;;;;;8.15;7.03;;;;;;;5.81;100.00;100589.84;10503044;28;20040;-71
2021/12/24 20:15:46;;;;;;;15.05;9.13;;;;;;;5.78;100.00;100592.88;10501566;28;20107;-69
2021/12/24 20:20:47;;;;;;;10.40;8.48;;;;;;;5.69;100.00;100586.66;10502668;28;20060;-71
2021/12/24 20:25:47;;;;;;;11.27;9.02;;;;;;;5.65;100.00;100590.72;10485105;28;20076;-72
2021/12/24 20:30:48;;;;;;;8.70;7.80;;;;;;;5.68;100.00;100594.88;10501504;28;20033;-73
2021/12/24 20:35:48;;;;;;;11.07;8.25;;;;;;;5.68;100.00;100606.50;10500526;28;20048;-68
2021/12/24 20:40:49;;;;;;;11.35;8.82;;;;;;;5.67;100.00;100604.81;10503119;28;20123;-71
2021/12/24 20:45:49;;;;;;;8.45;7.70;;;;;;;5.66;100.00;100600.44;10501162;28;20036;-71
2021/12/24 20:50:49;;;;;;;11.30;8.93;;;;;;;5.66;100.00;100597.75;10500746;28;20126;-70
2021/12/24 20:55:50;;;;;;;13.32;8.25;;;;;;;5.73;100.00;100606.81;10500284;28;20056;-72
2021/12/24 21:00:51;;;;;;;10.70;8.10;;;;;;;5.75;100.00;100601.28;10501846;28;20068;-72
2021/12/24 21:05:52;;;;;;;11.38;9.15;;;;;;;5.76;100.00;100598.41;10499694;28;20462;-72
2021/12/24 21:10:52;;;;;;;11.63;9.32;;;;;;;5.78;100.00;100603.59;10515798;28;20036;-72
2021/12/24 21:15:53;;;;;;;12.48;10.90;;;;;;;5.83;100.00;100602.06;10516720;28;20139;-73
2021/12/24 21:20:54;;;;;;;13.93;10.80;;;;;;;5.89;100.00;100597.84;10482479;28;20024;-71
2021/12/24 21:25:54;;;;;;;10.93;9.90;;;;;;;5.81;100.00;100601.41;10499028;28;20064;-71
2021/12/24 21:30:54;;;;;;;14.35;10.85;;;;;;;5.75;100.00;100587.84;10499366;28;20028;-71
2021/12/24 21:35:55;;;;;;;16.08;11.80;;;;;;;5.63;100.00;100584.69;10499539;28;20205;-71
2021/12/24 21:40:55;;;;;;;17.17;12.35;;;;;;;5.58;100.00;100595.94;10500183;28;20037;-71
2021/12/24 21:45:56;;;;;;;12.75;9.82;;;;;;;5.56;100.00;100586.38;10498739;28;20033;-71
2021/12/24 21:51:00;;;;;;;13.52;11.05;;;;;;;5.65;100.00;100589.88;10500290;28;20037;-71
2021/12/24 21:56:02;;;;;;;13.60;11.35;;;;;;;5.63;100.00;100592.75;10498652;28;20063;-72
2021/12/24 22:01:03;;;;;;;13.90;11.25;;;;;;;5.56;100.00;100595.28;10514128;28;20064;-71
2021/12/24 22:08:23;;;;;;;13.95;11.88;;;;;;;5.60;100.00;100598.44;10498123;28;20036;-71
2021/12/24 22:11:32;;;;;;;19.15;12.10;;;;;;;5.54;100.00;100605.34;10483650;28;20392;-71
2021/12/24 22:16:33;;;;;;;14.45;12.85;;;;;;;5.65;100.00;100617.59;10500128;28;20036;-71
2021/12/24 22:21:53;;;;;;;13.50;12.27;;;;;;;5.59;100.00;100596.78;10497873;28;20178;-71
2021/12/24 22:26:54;;;;;;;16.52;12.65;;;;;;;5.53;100.00;100611.72;10498388;28;20033;-71
2021/12/24 22:31:55;;;;;;;15.60;14.02;;;;;;;5.56;100.00;100618.63;10498077;28;20029;-70
2021/12/24 22:36:56;;;;;;;20.20;14.25;;;;;;;5.54;100.00;100615.25;10481930;28;20071;-70
2021/12/24 22:41:56;;;;;;;20.33;14.07;;;;;;;5.55;100.00;100611.53;10499719;28;20032;-70
2021/12/24 22:46:57;;;;;;;22.83;14.52;;;;;;;5.56;100.00;100616.75;10499261;28;20051;-70
2021/12/24 22:51:58;;;;;;;19.60;14.50;;;;;;;5.63;100.00;100619.59;10499036;28;20037;-70
2021/12/24 22:56:59;;;;;;;26.20;16.20;;;;;;;5.63;100.00;100616.06;10513483;28;20107;-71
2021/12/24 23:01:59;;;;;;;21.00;15.18;;;;;;;5.62;100.00;100611.72;10497320;28;20033;-73
2021/12/24 23:06:59;;;;;;;19.00;13.80;;;;;;;5.63;100.00;100614.22;10498331;28;20068;-71
2021/12/24 23:12:00;;;;;;;20.80;15.40;;;;;;;5.62;100.00;100614.41;10496857;28;20048;-71
2021/12/24 23:17:02;;;;;;;19.13;14.82;;;;;;;5.58;100.00;100609.38;10496606;28;20051;-71
2021/12/24 23:22:03;;;;;;;21.23;17.15;;;;;;;5.54;100.00;100609.88;10502816;28;20029;-73
2021/12/24 23:27:03;;;;;;;22.60;14.00;;;;;;;5.50;100.00;100614.75;10504884;28;20044;-74
2021/12/24 23:32:04;;;;;;;19.70;15.75;;;;;;;5.49;100.00;100613.09;10520291;28;20028;-73
2021/12/24 23:37:05;;;;;;;16.25;14.48;;;;;;;5.45;100.00;100614.44;10486351;28;20131;-72
2021/12/24 23:42:06;;;;;;;19.15;13.73;;;;;;;5.31;100.00;100620.50;10520559;28;20535;-72
2021/12/24 23:47:28;;;;;;;14.18;12.57;;;;;;;5.23;100.00;100605.25;10504932;28;20535;-72
2021/12/24 23:52:28;;;;;;;23.67;14.73;;;;;;;5.17;100.00;100603.25;10503788;28;20041;-72
2021/12/24 23:57:28;;;;;;;17.20;12.57;;;;;;;5.07;100.00;100600.75;10502570;28;20077;-72
